createdAt,value
2019-04-07T00:00:09.853Z,5.36
2019-04-07T00:01:14.573Z,5.35
2019-04-07T00:02:18.549Z,5.34
2019-04-07T00:03:23.044Z,5.32
2019-04-07T00:04:27.179Z,5.31
2019-04-07T00:05:31.221Z,5.31
2019-04-07T00:06:35.459Z,5.29
2019-04-07T00:07:40.191Z,5.29
2019-04-07T00:08:44.468Z,5.29
2019-04-07T00:09:48.176Z,5.28
2019-04-07T00:10:52.831Z,5.28
2019-04-07T00:11:56.649Z,5.27
2019-04-07T00:13:00.979Z,5.26
2019-04-07T00:14:05.641Z,5.25
2019-04-07T00:15:09.517Z,5.24
2019-04-07T00:16:13.877Z,5.21
2019-04-07T00:17:18.119Z,5.22
2019-04-07T00:18:22.504Z,5.21
2019-04-07T00:19:27.181Z,5.20
2019-04-07T00:20:30.917Z,5.18
2019-04-07T00:21:35.303Z,5.17
2019-04-07T00:22:39.362Z,5.17
2019-04-07T00:23:44.126Z,5.17
2019-04-07T00:24:47.980Z,5.17
2019-04-07T00:25:52.251Z,5.19
2019-04-07T00:26:56.504Z,5.19
2019-04-07T00:28:00.890Z,5.18
2019-04-07T00:29:05.112Z,5.18
2019-04-07T00:30:09.356Z,5.17
2019-04-07T00:31:13.599Z,5.17
2019-04-07T00:32:17.744Z,5.17
2019-04-07T00:33:22.078Z,5.18
2019-04-07T00:34:26.216Z,5.18
2019-04-07T00:35:32.631Z,5.17
2019-04-07T00:36:35.076Z,5.18
2019-04-07T00:37:39.115Z,5.20
2019-04-07T00:38:43.787Z,5.20
2019-04-07T00:39:47.709Z,5.20
2019-04-07T00:40:52.494Z,5.19
2019-04-07T00:41:56.577Z,5.18
2019-04-07T00:43:00.832Z,5.17
2019-04-07T00:44:05.046Z,5.18
2019-04-07T00:45:09.758Z,5.17
2019-04-07T00:46:13.630Z,5.17
2019-04-07T00:47:17.524Z,5.15
2019-04-07T00:48:22.156Z,5.14
2019-04-07T00:49:26.080Z,5.15
2019-04-07T00:50:30.533Z,5.15
2019-04-07T00:51:34.533Z,5.15
2019-04-07T00:52:39.145Z,5.15
2019-04-07T00:53:43.070Z,5.16
2019-04-07T00:54:47.861Z,5.14
2019-04-07T00:55:51.555Z,5.11
2019-04-07T00:56:55.805Z,5.08
2019-04-07T00:58:00.433Z,5.06
2019-04-07T00:59:04.447Z,5.04
2019-04-07T01:00:08.574Z,5.03
2019-04-07T01:01:12.716Z,4.99
2019-04-07T01:02:17.108Z,4.98
2019-04-07T01:03:21.211Z,4.97
2019-04-07T01:04:25.556Z,4.96
2019-04-07T01:05:36.220Z,4.95
2019-04-07T01:06:34.097Z,4.94
2019-04-07T01:07:38.892Z,4.94
2019-04-07T01:08:42.492Z,4.95
2019-04-07T01:09:46.714Z,4.95
2019-04-07T01:10:50.999Z,4.96
2019-04-07T01:11:55.127Z,4.95
2019-04-07T01:13:00.067Z,4.95
2019-04-07T01:14:03.800Z,4.95
2019-04-07T01:15:07.907Z,4.94
2019-04-07T01:16:12.217Z,4.94
2019-04-07T01:17:16.479Z,4.95
2019-04-07T01:18:20.764Z,4.93
2019-04-07T01:19:25.322Z,4.91
2019-04-07T01:20:29.588Z,4.90
2019-04-07T01:21:33.536Z,4.87
2019-04-07T01:22:37.749Z,4.87
2019-04-07T01:23:42.463Z,4.87
2019-04-07T01:24:46.141Z,4.86
2019-04-07T01:25:50.948Z,4.86
2019-04-07T01:26:54.727Z,4.85
2019-04-07T01:27:59.325Z,4.84
2019-04-07T01:29:03.283Z,4.84
2019-04-07T01:30:07.485Z,4.83
2019-04-07T01:31:12.207Z,4.82
2019-04-07T01:32:16.016Z,4.81
2019-04-07T01:33:20.742Z,4.80
2019-04-07T01:34:25.008Z,4.79
2019-04-07T01:35:28.960Z,4.78
2019-04-07T01:36:33.775Z,4.76
2019-04-07T01:37:37.521Z,4.75
2019-04-07T01:38:42.198Z,4.73
2019-04-07T01:39:46.001Z,4.72
2019-04-07T01:40:50.752Z,4.72
2019-04-07T01:41:54.345Z,4.71
2019-04-07T01:42:58.853Z,4.69
2019-04-07T01:44:03.528Z,4.67
2019-04-07T01:45:07.287Z,4.68
2019-04-07T01:46:11.221Z,4.67
2019-04-07T01:47:15.695Z,4.67
2019-04-07T01:48:20.369Z,4.68
2019-04-07T01:49:24.756Z,4.68
2019-04-07T01:50:28.591Z,4.68
2019-04-07T01:51:33.335Z,4.67
2019-04-07T01:52:37.005Z,4.66
2019-04-07T01:53:41.953Z,4.64
2019-04-07T01:54:45.648Z,4.64
2019-04-07T01:55:49.925Z,4.64
2019-04-07T01:56:54.092Z,4.61
2019-04-07T01:57:58.340Z,4.60
2019-04-07T01:59:02.616Z,4.60
2019-04-07T02:00:07.247Z,4.60
2019-04-07T02:01:10.933Z,4.58
2019-04-07T02:02:15.889Z,4.56
2019-04-07T02:03:19.588Z,4.56
2019-04-07T02:04:23.811Z,4.56
2019-04-07T02:05:28.739Z,4.54
2019-04-07T02:06:32.378Z,4.52
2019-04-07T02:07:37.449Z,4.51
2019-04-07T02:08:41.678Z,4.51
2019-04-07T02:09:45.262Z,4.50
2019-04-07T02:10:49.603Z,4.49
2019-04-07T02:11:53.976Z,4.48
2019-04-07T02:12:57.937Z,4.47
2019-04-07T02:14:02.208Z,4.47
2019-04-07T02:15:06.439Z,4.48
2019-04-07T02:16:10.512Z,4.49
2019-04-07T02:17:14.876Z,4.50
2019-04-07T02:18:19.014Z,4.49
2019-04-07T02:19:24.103Z,4.51
2019-04-07T02:20:27.941Z,4.53
2019-04-07T02:21:31.865Z,4.53
2019-04-07T02:22:36.601Z,4.54
2019-04-07T02:23:40.550Z,4.53
2019-04-07T02:24:45.328Z,4.53
2019-04-07T02:25:48.830Z,4.53
2019-04-07T02:26:53.218Z,4.53
2019-04-07T02:27:57.404Z,4.52
2019-04-07T02:29:01.673Z,4.52
2019-04-07T02:30:06.077Z,4.53
2019-04-07T02:31:10.077Z,4.53
2019-04-07T02:32:15.272Z,4.54
2019-04-07T02:33:18.686Z,4.55
2019-04-07T02:34:22.923Z,4.55
2019-04-07T02:35:28.186Z,4.55
2019-04-07T02:36:32.044Z,4.55
2019-04-07T02:37:35.772Z,4.56
2019-04-07T02:38:40.039Z,4.56
2019-04-07T02:39:44.294Z,4.55
2019-04-07T02:40:48.782Z,4.56
2019-04-07T02:41:53.650Z,4.54
2019-04-07T02:42:57.532Z,4.53
2019-04-07T02:44:01.610Z,4.54
2019-04-07T02:45:05.761Z,4.56
2019-04-07T02:46:10.928Z,4.55
2019-04-07T02:47:14.785Z,4.54
2019-04-07T02:48:18.312Z,4.53
2019-04-07T02:49:22.733Z,4.51
2019-04-07T02:50:26.940Z,4.48
2019-04-07T02:51:31.940Z,4.44
2019-04-07T02:52:35.752Z,4.45
2019-04-07T02:53:39.659Z,4.44
2019-04-07T02:54:44.475Z,4.43
2019-04-07T02:55:48.415Z,4.43
2019-04-07T02:56:52.541Z,4.42
2019-04-07T02:57:56.708Z,4.43
2019-04-07T02:59:01.335Z,4.43
2019-04-07T03:00:05.158Z,4.41
2019-04-07T03:01:09.669Z,4.39
2019-04-07T03:02:14.283Z,4.40
2019-04-07T03:03:18.821Z,4.38
2019-04-07T03:04:23.082Z,4.35
2019-04-07T03:05:26.733Z,4.33
2019-04-07T03:06:42.419Z,4.34
2019-04-07T03:07:35.692Z,4.33
2019-04-07T03:08:39.641Z,4.32
2019-04-07T03:09:44.006Z,4.31
2019-04-07T03:10:47.566Z,4.30
2019-04-07T03:11:52.456Z,4.30
2019-04-07T03:12:59.013Z,4.30
2019-04-07T03:14:02.143Z,4.27
2019-04-07T03:15:06.983Z,4.26
2019-04-07T03:16:10.698Z,4.25
2019-04-07T03:17:15.837Z,4.25
2019-04-07T03:18:20.141Z,4.26
2019-04-07T03:19:23.607Z,4.25
2019-04-07T03:20:28.089Z,4.24
2019-04-07T03:21:32.963Z,4.24
2019-04-07T03:22:36.759Z,4.23
2019-04-07T03:23:41.429Z,4.22
2019-04-07T03:24:44.625Z,4.23
2019-04-07T03:25:48.919Z,4.21
2019-04-07T03:26:53.559Z,4.20
2019-04-07T03:27:57.450Z,4.17
2019-04-07T03:29:01.587Z,4.16
2019-04-07T03:30:06.397Z,4.17
2019-04-07T03:31:10.697Z,4.18
2019-04-07T03:32:18.317Z,4.18
2019-04-07T03:33:22.208Z,4.20
2019-04-07T03:34:25.343Z,4.20
2019-04-07T03:35:30.081Z,4.23
2019-04-07T03:36:41.087Z,4.23
2019-04-07T03:37:43.027Z,4.24
2019-04-07T03:38:41.097Z,4.24
2019-04-07T03:39:44.236Z,4.24
2019-04-07T03:40:49.620Z,4.26
2019-04-07T03:41:53.710Z,4.26
2019-04-07T03:42:57.368Z,4.26
2019-04-07T03:44:01.403Z,4.25
2019-04-07T03:45:06.123Z,4.26
2019-04-07T03:46:09.626Z,4.27
2019-04-07T03:47:14.356Z,4.28
2019-04-07T03:48:18.125Z,4.28
2019-04-07T03:49:23.341Z,4.28
2019-04-07T03:50:27.403Z,4.28
2019-04-07T03:51:31.907Z,4.29
2019-04-07T03:52:35.643Z,4.29
2019-04-07T03:53:39.716Z,4.28
2019-04-07T03:54:44.025Z,4.27
2019-04-07T03:55:48.049Z,4.27
2019-04-07T03:56:53.002Z,4.27
2019-04-07T03:57:56.964Z,4.26
2019-04-07T03:59:01.031Z,4.26
2019-04-07T04:00:05.884Z,4.25
2019-04-07T04:01:10.189Z,4.26
2019-04-07T04:02:14.215Z,4.24
2019-04-07T04:03:17.933Z,4.24
2019-04-07T04:04:22.487Z,4.25
2019-04-07T04:05:27.361Z,4.23
2019-04-07T04:06:30.723Z,4.23
2019-04-07T04:07:37.092Z,4.23
2019-04-07T04:08:39.104Z,4.24
2019-04-07T04:09:44.085Z,4.25
2019-04-07T04:10:48.481Z,4.26
2019-04-07T04:11:52.021Z,4.26
2019-04-07T04:12:56.574Z,4.24
2019-04-07T04:14:01.332Z,4.24
2019-04-07T04:15:04.760Z,4.23
2019-04-07T04:16:08.937Z,4.21
2019-04-07T04:17:13.111Z,4.20
2019-04-07T04:18:18.304Z,4.19
2019-04-07T04:19:21.460Z,4.17
2019-04-07T04:20:25.880Z,4.15
2019-04-07T04:21:30.902Z,4.14
2019-04-07T04:22:34.341Z,4.15
2019-04-07T04:23:41.644Z,4.15
2019-04-07T04:24:43.671Z,4.18
2019-04-07T04:25:47.097Z,4.20
2019-04-07T04:26:51.941Z,4.21
2019-04-07T04:27:55.443Z,4.21
2019-04-07T04:28:59.933Z,4.22
2019-04-07T04:30:04.922Z,4.22
2019-04-07T04:31:08.115Z,4.23
2019-04-07T04:32:13.432Z,4.23
2019-04-07T04:33:16.692Z,4.24
2019-04-07T04:34:20.985Z,4.26
2019-04-07T04:35:25.216Z,4.26
2019-04-07T04:36:29.503Z,4.26
2019-04-07T04:37:41.935Z,4.26
2019-04-07T04:38:38.545Z,4.26
2019-04-07T04:39:42.298Z,4.25
2019-04-07T04:40:46.577Z,4.27
2019-04-07T04:41:51.168Z,4.28
2019-04-07T04:42:55.252Z,4.28
2019-04-07T04:44:00.407Z,4.30
2019-04-07T04:45:06.654Z,4.30
2019-04-07T04:46:11.345Z,4.29
2019-04-07T04:47:14.026Z,4.30
2019-04-07T04:48:19.550Z,4.30
2019-04-07T04:49:23.286Z,4.32
2019-04-07T04:50:27.542Z,4.31
2019-04-07T04:51:35.089Z,4.31
2019-04-07T04:52:36.272Z,4.31
2019-04-07T04:53:39.770Z,4.30
2019-04-07T04:54:44.034Z,4.30
2019-04-07T04:55:48.335Z,4.28
2019-04-07T04:56:53.456Z,4.29
2019-04-07T04:57:57.768Z,4.30
2019-04-07T04:59:01.075Z,4.30
2019-04-07T05:00:05.418Z,4.29
2019-04-07T05:01:09.731Z,4.30
2019-04-07T05:02:13.750Z,4.29
2019-04-07T05:03:18.263Z,4.29
2019-04-07T05:04:22.973Z,4.30
2019-04-07T05:05:26.630Z,4.29
2019-04-07T05:06:31.199Z,4.32
2019-04-07T05:07:47.914Z,4.32
2019-04-07T05:08:39.476Z,4.33
2019-04-07T05:09:48.788Z,4.34
2019-04-07T05:10:48.255Z,4.35
2019-04-07T05:11:52.815Z,4.38
2019-04-07T05:12:57.189Z,4.41
2019-04-07T05:14:00.893Z,4.42
2019-04-07T05:15:05.131Z,4.45
2019-04-07T05:16:09.088Z,4.47
2019-04-07T05:17:13.442Z,4.50
2019-04-07T05:18:17.588Z,4.51
2019-04-07T05:19:22.362Z,4.53
2019-04-07T05:20:26.795Z,4.58
2019-04-07T05:21:30.407Z,4.57
2019-04-07T05:22:34.140Z,4.61
2019-04-07T05:23:38.533Z,4.62
2019-04-07T05:24:42.716Z,4.64
2019-04-07T05:25:46.888Z,4.64
2019-04-07T05:26:51.129Z,4.65
2019-04-07T05:27:55.865Z,4.68
2019-04-07T05:28:59.495Z,4.69
2019-04-07T05:30:04.317Z,4.72
2019-04-07T05:31:08.846Z,4.79
2019-04-07T05:32:12.321Z,4.86
2019-04-07T05:33:16.669Z,4.86
2019-04-07T05:34:22.241Z,4.92
2019-04-07T05:35:25.135Z,5.01
2019-04-07T05:36:30.276Z,5.13
2019-04-07T05:37:34.137Z,5.26
2019-04-07T05:38:38.723Z,5.35
2019-04-07T05:39:42.583Z,5.46
2019-04-07T05:40:47.486Z,5.58
2019-04-07T05:41:51.088Z,5.60
2019-04-07T05:42:55.537Z,5.63
2019-04-07T05:43:59.760Z,5.67
2019-04-07T05:45:04.139Z,5.69
2019-04-07T05:46:09.074Z,5.70
2019-04-07T05:47:14.405Z,5.78
2019-04-07T05:48:19.458Z,5.83
2019-04-07T05:49:23.246Z,5.90
2019-04-07T05:50:27.456Z,5.99
2019-04-07T05:51:31.281Z,5.99
2019-04-07T05:52:38.584Z,5.94
2019-04-07T05:53:38.860Z,5.99
2019-04-07T05:54:42.913Z,5.87
2019-04-07T05:55:47.550Z,5.82
2019-04-07T05:56:51.505Z,5.82
2019-04-07T05:57:55.552Z,5.82
2019-04-07T05:59:00.564Z,5.81
2019-04-07T06:00:04.391Z,5.87
2019-04-07T06:01:08.541Z,5.91
2019-04-07T06:02:13.218Z,5.95
2019-04-07T06:03:17.684Z,5.97
2019-04-07T06:04:21.701Z,6.04
2019-04-07T06:05:25.672Z,6.07
2019-04-07T06:06:30.054Z,6.06
2019-04-07T06:07:35.958Z,6.15
2019-04-07T06:08:40.040Z,6.16
2019-04-07T06:09:42.876Z,6.22
2019-04-07T06:10:47.239Z,6.17
2019-04-07T06:11:52.218Z,6.23
2019-04-07T06:12:56.532Z,6.26
2019-04-07T06:14:00.815Z,6.34
2019-04-07T06:15:05.243Z,6.28
2019-04-07T06:16:09.545Z,6.39
2019-04-07T06:17:13.168Z,6.39
2019-04-07T06:18:17.455Z,6.45
2019-04-07T06:19:21.815Z,6.45
2019-04-07T06:20:26.052Z,6.54
2019-04-07T06:21:31.183Z,6.48
2019-04-07T06:22:34.982Z,6.59
2019-04-07T06:23:39.543Z,6.61
2019-04-07T06:24:43.801Z,6.65
2019-04-07T06:25:47.707Z,6.71
2019-04-07T06:26:52.122Z,6.67
2019-04-07T06:27:56.856Z,6.71
2019-04-07T06:29:01.464Z,6.82
2019-04-07T06:30:05.083Z,6.84
2019-04-07T06:31:09.441Z,6.88
2019-04-07T06:32:14.368Z,6.93
2019-04-07T06:33:18.036Z,6.91
2019-04-07T06:34:22.657Z,6.94
2019-04-07T06:35:26.990Z,6.97
2019-04-07T06:36:31.016Z,7.00
2019-04-07T06:37:35.296Z,7.10
2019-04-07T06:38:43.631Z,7.08
2019-04-07T06:39:44.081Z,7.07
2019-04-07T06:40:50.848Z,7.03
2019-04-07T06:41:52.493Z,7.06
2019-04-07T06:42:56.839Z,7.06
2019-04-07T06:44:18.425Z,6.98
2019-04-07T06:45:20.698Z,7.02
2019-04-07T06:46:22.627Z,7.02
2019-04-07T06:47:25.169Z,7.09
2019-04-07T06:48:30.543Z,7.18
2019-04-07T06:49:33.822Z,7.22
2019-04-07T06:50:47.414Z,7.19
2019-04-07T06:51:42.473Z,7.22
2019-04-07T06:52:46.697Z,7.26
2019-04-07T06:53:51.448Z,7.29
2019-04-07T06:54:56.280Z,7.32
2019-04-07T06:56:02.245Z,7.41
2019-04-07T06:57:06.053Z,7.45
2019-04-07T06:58:08.470Z,7.51
2019-04-07T06:59:15.426Z,7.58
2019-04-07T07:00:17.431Z,7.68
2019-04-07T07:01:24.528Z,7.69
2019-04-07T07:02:27.003Z,7.65
2019-04-07T07:03:33.544Z,7.68
2019-04-07T07:04:34.083Z,7.67
2019-04-07T07:05:38.785Z,7.62
2019-04-07T07:06:46.089Z,7.75
2019-04-07T07:07:48.224Z,7.76
2019-04-07T07:08:54.086Z,7.84
2019-04-07T07:09:59.679Z,7.89
2019-04-07T07:10:59.730Z,7.84
2019-04-07T07:12:04.139Z,7.88
2019-04-07T07:13:11.771Z,7.90
2019-04-07T07:14:16.209Z,7.85
2019-04-07T07:15:16.857Z,7.85
2019-04-07T07:16:21.821Z,7.90
2019-04-07T07:17:25.875Z,8.05
2019-04-07T07:18:30.648Z,8.11
2019-04-07T07:19:34.674Z,7.91
2019-04-07T07:20:39.350Z,7.89
2019-04-07T07:21:43.507Z,7.90
2019-04-07T07:22:48.701Z,7.99
2019-04-07T07:23:51.597Z,7.81
2019-04-07T07:24:59.058Z,7.86
2019-04-07T07:26:02.835Z,8.00
2019-04-07T07:27:07.291Z,8.00
2019-04-07T07:28:11.535Z,8.03
2019-04-07T07:29:14.756Z,8.10
2019-04-07T07:30:18.365Z,8.03
2019-04-07T07:31:24.716Z,8.11
2019-04-07T07:32:25.960Z,8.13
2019-04-07T07:33:30.261Z,8.10
2019-04-07T07:34:34.562Z,8.22
2019-04-07T07:35:38.913Z,8.20
2019-04-07T07:36:43.246Z,8.25
2019-04-07T07:37:48.349Z,8.30
2019-04-07T07:38:59.060Z,8.23
2019-04-07T07:39:56.399Z,8.25
2019-04-07T07:41:02.130Z,8.36
2019-04-07T07:42:04.744Z,8.39
2019-04-07T07:43:09.711Z,8.37
2019-04-07T07:44:13.418Z,8.43
2019-04-07T07:45:17.568Z,8.38
2019-04-07T07:46:23.559Z,8.25
2019-04-07T07:47:26.376Z,8.41
2019-04-07T07:48:31.401Z,8.46
2019-04-07T07:49:39.848Z,8.57
2019-04-07T07:50:40.442Z,8.56
2019-04-07T07:51:46.355Z,8.59
2019-04-07T07:52:51.328Z,8.53
2019-04-07T07:53:52.685Z,8.51
2019-04-07T07:54:59.788Z,8.63
2019-04-07T07:56:01.018Z,8.70
2019-04-07T07:57:05.129Z,8.58
2019-04-07T07:58:09.574Z,8.66
2019-04-07T07:59:13.905Z,8.62
2019-04-07T08:00:18.819Z,8.73
2019-04-07T08:01:22.611Z,8.94
2019-04-07T08:02:29.075Z,8.85
2019-04-07T08:03:31.518Z,8.93
2019-04-07T08:04:35.690Z,9.04
2019-04-07T08:05:40.869Z,9.01
2019-04-07T08:06:44.719Z,8.86
2019-04-07T08:07:50.188Z,8.95
2019-04-07T08:08:53.658Z,8.89
2019-04-07T08:09:58.068Z,8.94
2019-04-07T08:11:02.717Z,8.89
2019-04-07T08:12:06.324Z,8.93
2019-04-07T08:13:10.383Z,8.94
2019-04-07T08:14:17.944Z,8.92
2019-04-07T08:15:22.864Z,8.93
2019-04-07T08:16:23.930Z,8.97
2019-04-07T08:17:27.811Z,8.92
2019-04-07T08:18:32.088Z,9.03
2019-04-07T08:19:40.680Z,8.92
2019-04-07T08:20:44.921Z,9.19
2019-04-07T08:21:45.603Z,9.11
2019-04-07T08:22:50.370Z,9.01
2019-04-07T08:23:54.576Z,9.18
2019-04-07T08:24:58.812Z,9.20
2019-04-07T08:26:02.811Z,9.26
2019-04-07T08:27:07.349Z,9.06
2019-04-07T08:28:11.413Z,9.28
2019-04-07T08:29:15.813Z,9.17
2019-04-07T08:30:20.188Z,9.35
2019-04-07T08:31:25.069Z,9.29
2019-04-07T08:32:31.754Z,9.35
2019-04-07T08:33:33.277Z,9.14
2019-04-07T08:34:37.626Z,9.12
2019-04-07T08:35:42.643Z,9.23
2019-04-07T08:36:47.262Z,9.21
2019-04-07T08:37:50.737Z,9.35
2019-04-07T08:38:56.867Z,9.42
2019-04-07T08:39:59.492Z,9.44
2019-04-07T08:41:04.205Z,9.37
2019-04-07T08:42:11.154Z,9.44
2019-04-07T08:43:12.617Z,9.32
2019-04-07T08:44:17.162Z,9.40
2019-04-07T08:45:21.195Z,9.37
2019-04-07T08:46:26.416Z,9.55
2019-04-07T08:47:30.230Z,9.46
2019-04-07T08:48:34.264Z,9.51
2019-04-07T08:49:38.655Z,9.64
2019-04-07T08:50:42.953Z,9.69
2019-04-07T08:51:47.294Z,9.72
2019-04-07T08:52:52.209Z,9.78
2019-04-07T08:53:55.951Z,9.70
2019-04-07T08:55:00.286Z,9.60
2019-04-07T08:56:07.399Z,9.54
2019-04-07T08:57:09.614Z,9.70
2019-04-07T08:58:24.419Z,9.83
2019-04-07T08:59:18.322Z,9.81
2019-04-07T09:00:22.087Z,9.15
2019-04-07T09:01:28.760Z,9.34
2019-04-07T09:02:31.268Z,9.02
2019-04-07T09:03:35.841Z,9.10
2019-04-07T09:04:39.916Z,9.28
2019-04-07T09:05:44.467Z,9.56
2019-04-07T09:06:48.858Z,9.69
2019-04-07T09:07:52.865Z,9.78
2019-04-07T09:08:57.384Z,9.68
2019-04-07T09:10:01.425Z,9.61
2019-04-07T09:11:05.760Z,9.53
2019-04-07T09:12:10.388Z,9.71
2019-04-07T09:13:14.538Z,9.77
2019-04-07T09:14:18.915Z,9.72
2019-04-07T09:15:23.487Z,9.86
2019-04-07T09:16:28.032Z,9.95
2019-04-07T09:17:38.508Z,10.11
2019-04-07T09:18:36.725Z,10.15
2019-04-07T09:19:41.445Z,10.21
2019-04-07T09:20:48.415Z,10.26
2019-04-07T09:21:51.754Z,10.15
2019-04-07T09:22:56.654Z,10.25
2019-04-07T09:23:58.189Z,10.09
2019-04-07T09:25:06.315Z,10.36
2019-04-07T09:26:09.490Z,10.35
2019-04-07T09:27:14.661Z,10.50
2019-04-07T09:28:19.930Z,9.95
2019-04-07T09:29:21.011Z,9.81
2019-04-07T09:30:24.989Z,10.33
2019-04-07T09:31:29.294Z,10.51
2019-04-07T09:32:33.525Z,10.25
2019-04-07T09:33:38.780Z,10.51
2019-04-07T09:34:42.303Z,10.67
2019-04-07T09:35:46.669Z,10.68
2019-04-07T09:36:51.404Z,10.60
2019-04-07T09:37:55.976Z,10.69
2019-04-07T09:39:02.769Z,10.25
2019-04-07T09:40:05.394Z,10.35
2019-04-07T09:41:08.619Z,9.96
2019-04-07T09:42:13.761Z,10.00
2019-04-07T09:43:18.936Z,10.08
2019-04-07T09:44:22.030Z,10.13
2019-04-07T09:45:26.475Z,10.33
2019-04-07T09:46:31.130Z,9.95
2019-04-07T09:47:34.890Z,9.85
2019-04-07T09:48:40.333Z,10.36
2019-04-07T09:49:48.163Z,10.27
2019-04-07T09:50:48.198Z,10.46
2019-04-07T09:51:52.851Z,10.36
2019-04-07T09:52:56.885Z,10.13
2019-04-07T09:54:01.306Z,10.16
2019-04-07T09:55:08.337Z,10.18
2019-04-07T09:56:11.944Z,10.07
2019-04-07T09:57:14.471Z,9.88
2019-04-07T09:58:19.283Z,9.83
2019-04-07T09:59:23.946Z,9.87
2019-04-07T10:00:27.846Z,10.16
2019-04-07T10:01:32.980Z,10.33
2019-04-07T10:02:37.186Z,10.50
2019-04-07T10:03:41.001Z,10.03
2019-04-07T10:04:45.418Z,10.28
2019-04-07T10:05:49.810Z,10.04
2019-04-07T10:06:54.221Z,10.19
2019-04-07T10:07:58.973Z,9.87
2019-04-07T10:09:03.310Z,9.89
2019-04-07T10:10:12.278Z,9.64
2019-04-07T10:11:11.842Z,10.18
2019-04-07T10:12:16.188Z,10.11
2019-04-07T10:13:20.596Z,10.24
2019-04-07T10:14:25.794Z,9.25
2019-04-07T10:15:29.670Z,9.81
2019-04-07T10:16:35.137Z,9.64
2019-04-07T10:17:38.457Z,10.07
2019-04-07T10:18:42.940Z,9.84
2019-04-07T10:19:47.790Z,9.97
2019-04-07T10:20:51.541Z,10.06
2019-04-07T10:21:56.210Z,10.05
2019-04-07T10:23:00.673Z,9.89
2019-04-07T10:24:05.251Z,9.86
2019-04-07T10:25:09.296Z,9.80
2019-04-07T10:26:13.480Z,9.86
2019-04-07T10:27:18.697Z,9.51
2019-04-07T10:28:22.422Z,9.58
2019-04-07T10:29:27.551Z,9.18
2019-04-07T10:30:31.629Z,8.79
2019-04-07T10:31:35.519Z,8.82
2019-04-07T10:32:40.635Z,8.41
2019-04-07T10:33:44.351Z,9.31
2019-04-07T10:34:48.803Z,9.82
2019-04-07T10:35:53.205Z,9.45
2019-04-07T10:36:57.901Z,9.05
2019-04-07T10:38:02.187Z,9.52
2019-04-07T10:39:07.226Z,9.71
2019-04-07T10:40:18.882Z,9.54
2019-04-07T10:41:15.935Z,9.37
2019-04-07T10:42:20.143Z,9.30
2019-04-07T10:43:25.043Z,8.83
2019-04-07T10:44:29.213Z,8.85
2019-04-07T10:45:33.085Z,8.61
2019-04-07T10:46:37.564Z,8.62
2019-04-07T10:47:41.940Z,8.58
2019-04-07T10:48:46.746Z,9.00
2019-04-07T10:49:58.519Z,9.12
2019-04-07T10:50:55.558Z,9.25
2019-04-07T10:51:59.453Z,8.88
2019-04-07T10:53:03.870Z,9.29
2019-04-07T10:54:08.237Z,9.34
2019-04-07T10:55:13.048Z,9.30
2019-04-07T10:56:17.161Z,8.92
2019-04-07T10:57:22.179Z,8.10
2019-04-07T10:58:26.544Z,8.54
2019-04-07T10:59:30.825Z,8.85
2019-04-07T11:00:34.686Z,9.01
2019-04-07T11:01:39.775Z,9.24
2019-04-07T11:02:44.245Z,8.79
2019-04-07T11:03:48.663Z,8.95
2019-04-07T11:04:52.821Z,8.89
2019-04-07T11:05:57.142Z,8.99
2019-04-07T11:07:01.927Z,8.71
2019-04-07T11:08:06.068Z,8.73
2019-04-07T11:09:10.017Z,7.90
2019-04-07T11:10:14.400Z,8.56
2019-04-07T11:11:19.057Z,8.79
2019-04-07T11:12:23.259Z,8.53
2019-04-07T11:13:27.681Z,8.74
2019-04-07T11:14:32.059Z,8.16
2019-04-07T11:15:37.038Z,8.19
2019-04-07T11:16:40.804Z,8.49
2019-04-07T11:17:45.274Z,8.47
2019-04-07T11:18:50.361Z,7.01
2019-04-07T11:19:54.770Z,7.01
2019-04-07T11:20:58.382Z,6.48
2019-04-07T11:22:02.788Z,6.49
2019-04-07T11:23:07.397Z,6.76
2019-04-07T11:24:12.301Z,7.26
2019-04-07T11:25:16.466Z,7.03
2019-04-07T11:26:20.853Z,7.05
2019-04-07T11:27:25.478Z,7.27
2019-04-07T11:28:29.375Z,7.59
2019-04-07T11:29:35.396Z,7.18
2019-04-07T11:30:38.708Z,6.40
2019-04-07T11:31:42.911Z,6.15
2019-04-07T11:32:47.815Z,6.65
2019-04-07T11:33:52.423Z,6.66
2019-04-07T11:34:55.934Z,7.59
2019-04-07T11:36:00.696Z,8.01
2019-04-07T11:37:04.974Z,8.22
2019-04-07T11:38:09.264Z,8.38
2019-04-07T11:39:13.643Z,8.41
2019-04-07T11:40:18.245Z,7.03
2019-04-07T11:41:25.379Z,6.59
2019-04-07T11:42:26.855Z,7.53
2019-04-07T11:43:31.506Z,8.38
2019-04-07T11:44:35.749Z,6.34
2019-04-07T11:45:52.239Z,7.57
2019-04-07T11:46:45.004Z,7.27
2019-04-07T11:47:49.278Z,7.79
2019-04-07T11:48:53.343Z,6.38
2019-04-07T11:49:58.196Z,7.22
2019-04-07T11:51:03.229Z,6.67
2019-04-07T11:52:07.148Z,7.27
2019-04-07T11:53:11.148Z,7.03
2019-04-07T11:54:15.439Z,7.16
2019-04-07T11:55:19.878Z,7.31
2019-04-07T11:56:24.904Z,7.51
2019-04-07T11:57:29.016Z,8.07
2019-04-07T11:58:34.648Z,7.37
2019-04-07T11:59:37.807Z,7.83
2019-04-07T12:00:42.102Z,7.83
2019-04-07T12:01:49.491Z,7.29
2019-04-07T12:02:51.843Z,7.47
2019-04-07T12:03:55.807Z,7.85
2019-04-07T12:04:59.989Z,7.46
2019-04-07T12:06:04.079Z,8.07
2019-04-07T12:07:08.932Z,7.17
2019-04-07T12:08:12.914Z,7.89
2019-04-07T12:09:17.592Z,7.87
2019-04-07T12:10:22.475Z,7.95
2019-04-07T12:11:26.245Z,7.67
2019-04-07T12:12:31.100Z,6.96
2019-04-07T12:13:35.091Z,7.21
2019-04-07T12:14:39.512Z,7.83
2019-04-07T12:15:44.100Z,7.69
2019-04-07T12:16:49.170Z,8.05
2019-04-07T12:17:53.492Z,7.74
2019-04-07T12:18:57.859Z,7.67
2019-04-07T12:20:01.762Z,7.76
2019-04-07T12:21:07.624Z,6.96
2019-04-07T12:22:13.173Z,6.65
2019-04-07T12:23:20.963Z,6.95
2019-04-07T12:24:24.602Z,7.68
2019-04-07T12:25:24.150Z,7.16
2019-04-07T12:26:28.594Z,7.86
2019-04-07T12:27:33.370Z,8.04
2019-04-07T12:28:37.655Z,8.39
2019-04-07T12:29:42.800Z,8.59
2019-04-07T12:30:46.967Z,9.25
2019-04-07T12:31:51.061Z,9.05
2019-04-07T12:32:55.452Z,8.51
2019-04-07T12:33:59.906Z,8.10
2019-04-07T12:35:05.213Z,8.16
2019-04-07T12:36:09.431Z,8.16
2019-04-07T12:37:13.190Z,8.37
2019-04-07T12:38:17.718Z,7.95
2019-04-07T12:39:22.318Z,8.33
2019-04-07T12:40:26.499Z,8.21
2019-04-07T12:41:32.015Z,8.43
2019-04-07T12:42:35.694Z,8.82
2019-04-07T12:43:40.404Z,8.68
2019-04-07T12:44:44.226Z,8.55
2019-04-07T12:45:49.353Z,8.15
2019-04-07T12:46:53.807Z,8.36
2019-04-07T12:47:58.332Z,8.56
2019-04-07T12:49:05.416Z,8.10
2019-04-07T12:50:06.402Z,7.86
2019-04-07T12:51:12.225Z,7.37
2019-04-07T12:52:15.332Z,7.86
2019-04-07T12:53:19.759Z,7.83
2019-04-07T12:54:24.136Z,7.57
2019-04-07T12:55:29.393Z,8.62
2019-04-07T12:56:34.248Z,8.59
2019-04-07T12:57:39.576Z,8.56
2019-04-07T12:58:45.070Z,8.81
2019-04-07T12:59:48.710Z,8.77
2019-04-07T13:00:57.799Z,8.64
2019-04-07T13:01:55.311Z,8.71
2019-04-07T13:02:59.824Z,8.84
2019-04-07T13:04:04.679Z,8.47
2019-04-07T13:05:08.755Z,8.58
2019-04-07T13:06:13.085Z,8.69
2019-04-07T13:07:19.728Z,8.55
2019-04-07T13:08:23.987Z,8.47
2019-04-07T13:09:29.663Z,8.61
2019-04-07T13:10:32.537Z,8.63
2019-04-07T13:11:39.507Z,8.20
2019-04-07T13:12:39.812Z,8.65
2019-04-07T13:13:44.907Z,7.76
2019-04-07T13:14:49.095Z,7.74
2019-04-07T13:15:53.776Z,8.39
2019-04-07T13:17:00.121Z,8.06
2019-04-07T13:18:05.237Z,7.94
2019-04-07T13:19:09.601Z,7.69
2019-04-07T13:20:10.915Z,7.81
2019-04-07T13:21:15.533Z,7.64
2019-04-07T13:22:20.439Z,8.30
2019-04-07T13:23:24.166Z,8.47
2019-04-07T13:24:33.685Z,8.75
2019-04-07T13:25:33.032Z,8.21
2019-04-07T13:26:37.506Z,8.37
2019-04-07T13:27:42.745Z,8.65
2019-04-07T13:28:46.434Z,8.89
2019-04-07T13:29:51.806Z,7.84
2019-04-07T13:30:56.271Z,8.36
2019-04-07T13:32:00.167Z,8.80
2019-04-07T13:33:04.599Z,8.98
2019-04-07T13:34:09.405Z,8.94
2019-04-07T13:35:13.224Z,8.56
2019-04-07T13:36:17.674Z,7.85
2019-04-07T13:37:22.102Z,8.09
2019-04-07T13:38:26.595Z,8.14
2019-04-07T13:39:33.354Z,8.87
2019-04-07T13:40:36.162Z,8.41
2019-04-07T13:41:45.795Z,8.53
2019-04-07T13:42:44.501Z,8.77
2019-04-07T13:43:48.719Z,8.57
2019-04-07T13:44:53.743Z,8.74
2019-04-07T13:45:57.585Z,9.03
2019-04-07T13:47:06.429Z,8.88
2019-04-07T13:48:06.461Z,8.57
2019-04-07T13:49:11.751Z,8.43
2019-04-07T13:50:16.370Z,8.60
2019-04-07T13:51:19.758Z,8.41
2019-04-07T13:52:24.676Z,8.67
2019-04-07T13:53:30.607Z,8.35
2019-04-07T13:54:33.855Z,8.55
2019-04-07T13:55:41.078Z,8.59
2019-04-07T13:56:41.926Z,8.22
2019-04-07T13:57:46.460Z,8.39
2019-04-07T13:58:50.948Z,7.98
2019-04-07T13:59:57.029Z,7.53
2019-04-07T14:00:59.698Z,7.84
2019-04-07T14:02:04.256Z,7.95
2019-04-07T14:03:08.526Z,7.77
2019-04-07T14:04:13.202Z,7.59
2019-04-07T14:05:17.387Z,7.85
2019-04-07T14:06:22.222Z,7.86
2019-04-07T14:07:26.357Z,7.72
2019-04-07T14:08:31.247Z,7.66
2019-04-07T14:09:35.360Z,7.88
2019-04-07T14:10:39.505Z,8.04
2019-04-07T14:11:58.228Z,7.72
2019-04-07T14:12:48.989Z,7.67
2019-04-07T14:13:53.449Z,8.03